Time;durP1;ratioP1;P1;durP2;ratioP2;P2;SDS_P1;SDS_P2;PMS_P1;PMS_P2;Temp;Humidity;BMP_temperature;BMP_pressure;BME280_temperature;BME280_humidity;BME280_pressure;Samples;Min_cycle;Max_cycle;Signal;HPM_P1;HPM_P2
2022/01/15 00:01:40;;;;;;;15.63;7.90;;;;;;;6.67;74.76;99264.31;5034896;28;20166;-86
2022/01/15 00:04:05;;;;;;;10.10;5.43;;;;;;;7.16;74.17;99354.34;5025114;28;20573;-84
2022/01/15 00:06:31;;;;;;;8.03;5.10;;;;;;;5.34;74.82;99036.34;5033978;28;20154;-83
2022/01/15 00:08:56;;;;;;;8.17;4.37;;;;;;;6.42;74.55;99232.75;5033975;28;20224;-83
2022/01/15 00:11:22;;;;;;;7.93;4.00;;;;;;;4.32;74.80;98905.72;5033447;28;20213;-84
2022/01/15 00:13:55;;;;;;;6.73;3.93;;;;;;;6.28;75.87;99228.59;5032686;28;20276;-84
2022/01/15 00:16:44;;;;;;;8.37;4.50;;;;;;;5.65;75.63;99165.41;5032992;28;20154;-83
2022/01/15 00:19:12;;;;;;;6.23;3.70;;;;;;;5.83;76.18;99189.06;5033106;28;20396;-83
2022/01/15 00:21:38;;;;;;;5.13;3.30;;;;;;;5.74;77.40;99190.19;5032881;28;20150;-84
2022/01/15 00:24:04;;;;;;;6.70;3.97;;;;;;;6.63;77.74;99375.56;5033628;28;20172;-83
2022/01/15 00:26:29;;;;;;;6.00;3.43;;;;;;;5.04;77.06;99135.78;5033601;28;20163;-83
2022/01/15 00:28:55;;;;;;;6.67;3.23;;;;;;;4.38;76.47;99012.19;5021069;28;20684;-83
2022/01/15 00:31:21;;;;;;;7.00;3.43;;;;;;;4.60;76.29;99024.38;5044583;28;20622;-83
2022/01/15 00:33:46;;;;;;;6.97;3.57;;;;;;;4.54;76.52;99026.50;5042406;28;20653;-83
2022/01/15 00:36:12;;;;;;;7.77;4.23;;;;;;;6.34;77.13;99353.75;5042243;28;20162;-83
2022/01/15 00:38:37;;;;;;;8.77;3.97;;;;;;;6.58;78.12;99445.72;5035803;28;20527;-83
2022/01/15 00:41:03;;;;;;;7.20;3.77;;;;;;;2.93;78.31;98813.72;5015212;28;20184;-84
2022/01/15 00:43:28;;;;;;;6.37;3.53;;;;;;;5.80;78.18;99296.88;5032203;28;20169;-84
2022/01/15 00:45:57;;;;;;;5.83;3.57;;;;;;;5.72;77.60;99292.16;5032690;28;20622;-84
2022/01/15 00:48:22;;;;;;;8.43;2.80;;;;;;;5.12;77.18;99154.66;5032201;28;20158;-83
2022/01/15 00:50:47;;;;;;;7.63;3.60;;;;;;;6.54;78.09;99422.03;5032280;28;20607;-83
2022/01/15 00:53:13;;;;;;;5.63;3.17;;;;;;;5.24;77.83;99164.56;5015997;28;20173;-82
2022/01/15 00:55:38;;;;;;;7.50;3.80;;;;;;;5.43;77.55;99211.72;5032480;28;20189;-83
2022/01/15 00:58:04;;;;;;;5.97;3.70;;;;;;;6.22;77.76;99345.47;5032942;28;20169;-83
2022/01/15 01:00:29;;;;;;;6.10;3.30;;;;;;;4.45;77.08;99043.53;5032262;28;20626;-84
2022/01/15 01:02:55;;;;;;;7.80;3.70;;;;;;;6.63;77.63;99410.78;5032308;28;20661;-83
2022/01/15 01:05:21;;;;;;;6.40;3.40;;;;;;;6.56;77.66;99404.53;5032312;28;20158;-84
2022/01/15 01:07:47;;;;;;;5.37;2.87;;;;;;;6.57;77.70;99395.31;5032395;28;20190;-84
2022/01/15 01:23:22;;;;;;;4.70;2.80;;;;;;;6.57;77.09;99392.81;5032273;28;20495;-84
2022/01/15 01:25:53;;;;;;;5.57;3.40;;;;;;;6.56;77.34;99386.06;5035383;28;20169;-83
2022/01/15 01:28:29;;;;;;;7.20;3.43;;;;;;;6.49;76.67;99375.63;5035769;28;20162;-84
2022/01/15 01:36:19;;;;;;;7.27;3.77;;;;;;;6.81;77.09;99419.44;5037997;28;20198;-84
2022/01/15 01:39:08;;;;;;;4.83;2.90;;;;;;;3.40;77.21;98860.84;5035353;28;20166;-83
2022/01/15 01:41:35;;;;;;;6.07;3.27;;;;;;;5.87;77.67;99275.56;5035093;28;20181;-83
2022/01/15 01:44:02;;;;;;;6.80;3.77;;;;;;;6.08;77.88;99324.56;5035854;28;20170;-83
2022/01/15 01:48:56;;;;;;;6.43;3.70;;;;;;;6.27;77.59;99361.69;5035734;28;20174;-84
2022/01/15 01:51:24;;;;;;;5.50;3.10;;;;;;;6.65;77.76;99435.25;5035355;28;20679;-85
2022/01/15 01:53:51;;;;;;;8.03;4.20;;;;;;;6.61;77.96;99442.53;5035632;28;20444;-84
2022/01/15 01:56:18;;;;;;;5.37;3.27;;;;;;;6.05;77.66;99354.53;5034963;28;20167;-84
2022/01/15 01:58:43;;;;;;;5.60;3.10;;;;;;;4.75;77.23;99120.59;5035284;28;20158;-83
2022/01/15 02:01:09;;;;;;;6.93;3.63;;;;;;;6.64;76.49;99415.03;5028060;28;20164;-82
2022/01/15 02:03:35;;;;;;;5.60;3.57;;;;;;;6.56;77.07;99422.16;5044269;28;20198;-84
2022/01/15 02:06:01;;;;;;;5.93;3.03;;;;;;;5.55;77.05;99278.59;5035029;28;20392;-83
2022/01/15 02:08:26;;;;;;;6.07;3.80;;;;;;;6.06;77.06;99326.13;5034385;28;20158;-84
2022/01/15 02:10:52;;;;;;;5.30;3.00;;;;;;;4.54;76.96;99089.19;5035186;28;20154;-84
2022/01/15 02:13:18;;;;;;;7.40;2.93;;;;;;;5.43;76.44;99246.84;5034802;28;20170;-83
2022/01/15 02:15:44;;;;;;;6.33;3.30;;;;;;;6.73;77.04;99438.25;5035130;28;20196;-84
2022/01/15 02:18:11;;;;;;;6.37;4.20;;;;;;;4.75;77.09;99100.53;5035082;28;20245;-85
2022/01/15 02:21:01;;;;;;;5.57;3.37;;;;;;;6.73;77.21;99433.22;5034807;28;20165;-84
2022/01/15 02:23:35;;;;;;;6.20;3.50;;;;;;;4.53;76.42;99064.91;5034678;28;20162;-84
2022/01/15 02:26:06;;;;;;;8.83;4.37;;;;;;;5.79;76.46;99269.16;5034665;28;20589;-83
2022/01/15 02:28:37;;;;;;;7.10;4.10;;;;;;;4.14;75.97;99004.06;5034496;28;20198;-84
2022/01/15 02:31:08;;;;;;;5.63;3.57;;;;;;;5.66;77.19;99300.19;5034591;28;20622;-85
2022/01/15 02:33:34;;;;;;;4.47;2.63;;;;;;;6.56;77.12;99444.78;5034363;28;20189;-84
2022/01/15 02:36:03;;;;;;;7.07;3.63;;;;;;;3.19;77.62;98892.84;5033216;28;20212;-84
2022/01/15 02:38:29;;;;;;;6.37;4.00;;;;;;;5.04;78.03;99237.75;5034313;28;20197;-83
2022/01/15 02:40:54;;;;;;;7.60;4.07;;;;;;;6.20;79.87;99483.66;5034378;28;20162;-83
2022/01/15 02:43:28;;;;;;;7.37;4.07;;;;;;;6.10;81.42;99472.94;5034435;28;20168;-84
2022/01/15 02:45:57;;;;;;;9.43;5.07;;;;;;;5.97;82.35;99476.31;5034096;28;20161;-83
2022/01/15 02:48:28;;;;;;;9.87;5.17;;;;;;;5.82;84.02;99478.69;5034556;28;20408;-83
2022/01/15 02:50:55;;;;;;;14.20;6.07;;;;;;;2.39;84.87;98900.03;5034487;28;20577;-83
2022/01/15 02:53:21;;;;;;;8.93;5.20;;;;;;;5.76;85.69;99479.97;5035537;28;20409;-85
2022/01/15 02:55:49;;;;;;;7.50;4.13;;;;;;;2.53;85.49;98931.81;5033361;28;20436;-83
2022/01/15 02:58:17;;;;;;;9.10;4.67;;;;;;;2.99;85.96;99049.06;5016995;28;20486;-84
2022/01/15 03:00:43;;;;;;;8.90;4.93;;;;;;;3.49;85.79;99094.06;5034905;28;20893;-83
2022/01/15 03:03:08;;;;;;;9.53;4.70;;;;;;;5.06;86.54;99370.03;5034448;28;20401;-83
2022/01/15 03:05:34;;;;;;;8.20;4.50;;;;;;;4.11;86.46;99215.88;5034043;28;20546;-83
2022/01/15 03:08:00;;;;;;;9.50;4.70;;;;;;;5.69;87.79;99493.75;5034473;28;20521;-83
2022/01/15 03:10:25;;;;;;;7.80;4.60;;;;;;;5.31;87.77;99428.53;5033962;28;20170;-83
2022/01/15 03:12:54;;;;;;;8.60;5.07;;;;;;;4.04;88.26;99209.59;5033652;28;20162;-84
2022/01/15 03:15:20;;;;;;;8.93;4.40;;;;;;;5.64;88.88;99512.69;5034015;28;20315;-83
2022/01/15 03:17:47;;;;;;;8.20;4.47;;;;;;;2.89;89.21;99008.34;5034450;28;20409;-83
2022/01/15 03:20:15;;;;;;;7.60;4.60;;;;;;;5.81;88.88;99486.13;5016495;28;20185;-83
2022/01/15 03:22:41;;;;;;;7.80;4.37;;;;;;;4.28;89.21;99237.91;5034048;28;20408;-83
2022/01/15 03:25:07;;;;;;;8.30;5.07;;;;;;;4.70;88.35;99287.41;5037936;28;20403;-83
2022/01/15 03:27:33;;;;;;;9.47;4.47;;;;;;;4.71;88.23;99281.63;5029339;28;20178;-82
2022/01/15 03:29:58;;;;;;;8.10;5.23;;;;;;;6.07;87.89;99508.75;5043174;28;20427;-84
2022/01/15 03:32:24;;;;;;;11.37;6.03;;;;;;;5.73;88.02;99447.97;5036352;28;20249;-83
2022/01/15 03:34:49;;;;;;;7.90;4.73;;;;;;;6.09;88.38;99521.44;5015992;28;20740;-84
2022/01/15 03:37:15;;;;;;;11.73;5.63;;;;;;;5.14;87.84;99338.75;5034683;28;20173;-84
2022/01/15 03:39:41;;;;;;;10.20;6.23;;;;;;;3.35;87.41;99043.13;5033494;28;20166;-83
2022/01/15 03:42:13;;;;;;;14.10;5.80;;;;;;;4.47;87.53;99218.28;5033498;28;20411;-83
2022/01/15 03:44:44;;;;;;;14.50;7.70;;;;;;;6.24;86.99;99495.59;5033533;28;20150;-84
2022/01/15 03:47:11;;;;;;;12.33;6.77;;;;;;;4.94;86.67;99285.59;5032705;28;21011;-83
2022/01/15 03:49:37;;;;;;;11.30;6.00;;;;;;;5.67;85.79;99397.38;5033693;28;20245;-84
2022/01/15 03:52:04;;;;;;;10.17;5.87;;;;;;;5.96;85.88;99451.94;5033232;28;20447;-84
2022/01/15 03:54:30;;;;;;;10.67;5.60;;;;;;;5.74;86.04;99408.69;5015725;28;20455;-84
2022/01/15 03:56:55;;;;;;;12.93;6.47;;;;;;;5.46;85.11;99375.06;5033379;28;20405;-83
2022/01/15 03:59:21;;;;;;;10.47;6.53;;;;;;;3.80;84.96;99082.81;5033172;28;20618;-83
2022/01/15 04:01:46;;;;;;;20.93;8.80;;;;;;;6.35;84.93;99516.38;5015798;28;20162;-83
2022/01/15 04:04:12;;;;;;;40.67;16.07;;;;;;;5.92;84.88;99427.41;5033470;28;20169;-84
2022/01/15 04:06:38;;;;;;;77.93;21.60;;;;;;;4.35;84.31;99174.00;5033004;28;20249;-83
2022/01/15 04:09:03;;;;;;;20.37;9.33;;;;;;;4.44;85.02;99187.13;5033505;28;20198;-83
2022/01/15 04:11:29;;;;;;;36.90;14.57;;;;;;;4.62;84.09;99193.28;5033939;28;20166;-82
2022/01/15 04:13:54;;;;;;;32.13;13.73;;;;;;;3.96;84.20;99119.69;5016859;28;20241;-83
2022/01/15 04:16:20;;;;;;;52.70;21.87;;;;;;;5.59;84.45;99375.94;5032689;28;20165;-84
2022/01/15 04:18:45;;;;;;;14.73;7.60;;;;;;;4.82;83.77;99247.19;5032215;28;20189;-84
2022/01/15 04:21:11;;;;;;;8.80;5.10;;;;;;;5.71;82.83;99416.84;5032501;28;20158;-84
2022/01/15 04:23:37;;;;;;;10.93;5.80;;;;;;;5.99;82.59;99422.00;5032647;28;20166;-84
2022/01/15 04:26:04;;;;;;;11.37;4.80;;;;;;;6.53;81.85;99527.59;5032434;28;20196;-85
2022/01/15 04:28:32;;;;;;;9.83;5.60;;;;;;;4.80;81.24;99224.56;5032714;28;20413;-83
2022/01/15 04:31:04;;;;;;;15.63;7.87;;;;;;;4.31;82.08;99170.44;5032309;28;20212;-83
2022/01/15 04:33:32;;;;;;;24.20;12.50;;;;;;;6.15;81.58;99482.50;5032853;28;20158;-84
2022/01/15 04:35:58;;;;;;;14.03;7.30;;;;;;;5.45;80.44;99355.75;5032712;28;20169;-84
2022/01/15 04:38:23;;;;;;;10.80;5.77;;;;;;;5.25;80.42;99312.72;5032836;28;20253;-84
2022/01/15 04:40:52;;;;;;;9.60;5.77;;;;;;;6.91;80.69;99607.91;5034779;28;20192;-86
2022/01/15 04:43:18;;;;;;;25.77;10.20;;;;;;;6.26;80.61;99501.59;5024027;28;20170;-84
2022/01/15 04:45:43;;;;;;;15.40;7.70;;;;;;;6.79;81.10;99608.00;5033682;28;20618;-84
2022/01/15 04:48:09;;;;;;;13.30;6.23;;;;;;;6.73;81.87;99609.28;5032330;28;20249;-84
2022/01/15 04:50:34;;;;;;;17.33;7.80;;;;;;;4.60;82.15;99265.91;5033504;28;20165;-83
2022/01/15 04:53:00;;;;;;;17.60;9.37;;;;;;;5.04;81.92;99338.97;5033498;28;20211;-84
2022/01/15 04:55:25;;;;;;;19.47;9.27;;;;;;;4.85;81.96;99341.06;5043015;28;20274;-82
2022/01/15 04:57:51;;;;;;;20.87;10.20;;;;;;;5.38;82.64;99433.16;5035167;28;20185;-83
2022/01/15 05:00:18;;;;;;;28.60;13.97;;;;;;;6.64;82.78;99646.44;5031810;28;20182;-83
2022/01/15 05:02:43;;;;;;;17.03;8.77;;;;;;;5.82;82.52;99520.53;5032851;28;20162;-84
2022/01/15 05:05:09;;;;;;;16.67;9.13;;;;;;;6.51;82.95;99627.19;5014845;28;20170;-83
2022/01/15 05:07:35;;;;;;;21.10;12.13;;;;;;;4.29;81.79;99213.69;5014810;28;20178;-84
2022/01/15 05:10:00;;;;;;;38.93;20.40;;;;;;;6.93;82.05;99680.19;5032615;28;20186;-84
2022/01/15 05:12:32;;;;;;;27.20;14.10;;;;;;;5.03;81.92;99339.72;5032742;28;20213;-84
2022/01/15 05:14:58;;;;;;;14.20;8.13;;;;;;;6.34;81.58;99583.41;5032033;28;20230;-84
2022/01/15 05:17:23;;;;;;;13.73;8.20;;;;;;;6.48;80.93;99605.22;5034245;28;20265;-84
2022/01/15 05:19:49;;;;;;;14.43;8.07;;;;;;;6.42;81.50;99581.38;5033222;28;20205;-83
2022/01/15 05:22:15;;;;;;;15.57;8.60;;;;;;;6.83;81.50;99645.19;5033360;28;20170;-84
2022/01/15 05:24:43;;;;;;;13.47;8.00;;;;;;;7.17;80.77;99688.38;5034576;28;20168;-86
2022/01/15 05:27:09;;;;;;;14.77;8.30;;;;;;;5.68;80.73;99440.94;5041811;28;20166;-84
2022/01/15 05:29:34;;;;;;;14.90;8.07;;;;;;;6.35;80.74;99557.47;5032067;28;20159;-84
2022/01/15 05:31:59;;;;;;;21.97;11.43;;;;;;;7.10;80.39;99697.22;5032313;28;20174;-84
2022/01/15 05:34:25;;;;;;;21.37;10.90;;;;;;;5.97;79.95;99496.41;5037364;28;20571;-84
2022/01/15 05:36:50;;;;;;;31.07;15.63;;;;;;;6.34;80.16;99585.03;5036588;28;20189;-84
2022/01/15 05:39:16;;;;;;;50.80;21.83;;;;;;;6.06;79.91;99532.16;5020858;28;20652;-84
2022/01/15 05:41:41;;;;;;;30.37;14.70;;;;;;;6.95;80.50;99695.41;5016243;28;20178;-85
2022/01/15 05:44:08;;;;;;;46.37;20.17;;;;;;;6.87;80.78;99678.94;5020519;28;20174;-88
2022/01/15 05:46:34;;;;;;;211.77;68.63;;;;;;;6.68;80.85;99653.41;5025452;28;20190;-84
2022/01/15 05:49:03;;;;;;;41.40;17.63;;;;;;;6.48;80.54;99622.00;5044687;28;20174;-84
2022/01/15 05:51:32;;;;;;;56.43;25.60;;;;;;;5.14;80.26;99405.63;5033148;28;20680;-83
2022/01/15 05:54:03;;;;;;;93.67;40.97;;;;;;;6.79;80.81;99662.47;5032804;28;20280;-83
2022/01/15 05:56:29;;;;;;;82.83;40.17;;;;;;;5.13;80.18;99407.31;5033126;28;20154;-84
2022/01/15 05:58:54;;;;;;;86.13;40.40;;;;;;;7.13;80.09;99740.19;5034013;28;20541;-84
2022/01/15 06:01:21;;;;;;;69.43;32.93;;;;;;;6.95;80.20;99753.28;5032676;28;20162;-83
2022/01/15 06:03:47;;;;;;;39.33;20.50;;;;;;;6.54;79.59;99670.13;5036461;28;20686;-85
2022/01/15 06:06:12;;;;;;;26.90;13.50;;;;;;;7.00;79.28;99751.94;5018542;28;20227;-84
2022/01/15 06:08:37;;;;;;;30.30;15.60;;;;;;;6.51;79.20;99680.00;5032416;28;20649;-83
2022/01/15 06:11:03;;;;;;;57.13;24.57;;;;;;;7.05;79.87;99775.72;5034131;28;20173;-84
2022/01/15 06:13:28;;;;;;;56.50;24.93;;;;;;;6.58;79.77;99719.00;5035583;28;20268;-84
2022/01/15 06:15:54;;;;;;;108.70;44.57;;;;;;;6.85;80.43;99784.53;5016808;28;20214;-84
2022/01/15 06:18:19;;;;;;;35.33;17.70;;;;;;;6.19;80.98;99705.59;5035340;28;20166;-83
2022/01/15 06:20:44;;;;;;;28.10;15.10;;;;;;;4.06;80.92;99344.94;5038679;28;20167;-84
2022/01/15 06:23:10;;;;;;;44.80;22.47;;;;;;;4.07;81.19;99365.06;5053961;28;20176;-83
2022/01/15 06:25:35;;;;;;;36.87;20.50;;;;;;;5.14;81.19;99534.47;5040808;28;20197;-83
2022/01/15 06:28:01;;;;;;;34.90;20.10;;;;;;;4.75;81.07;99442.38;5040461;28;20162;-82
2022/01/15 06:30:26;;;;;;;90.90;39.33;;;;;;;4.72;81.13;99448.84;5039104;28;20162;-83
2022/01/15 06:32:51;;;;;;;94.57;39.93;;;;;;;6.74;81.62;99809.75;5038397;28;20740;-83
2022/01/15 06:35:17;;;;;;;56.37;27.10;;;;;;;4.13;82.02;99388.03;5035139;28;20730;-84
2022/01/15 06:37:47;;;;;;;107.17;39.17;;;;;;;6.86;81.86;99818.13;5035120;28;20158;-84
2022/01/15 06:40:15;;;;;;;60.20;26.57;;;;;;;5.80;81.84;99660.22;5035159;28;20525;-84
2022/01/15 06:42:41;;;;;;;64.87;31.23;;;;;;;5.38;81.32;99599.63;5033494;28;20169;-86
2022/01/15 06:45:07;;;;;;;64.37;30.03;;;;;;;6.23;81.48;99719.25;5034962;28;20159;-84
2022/01/15 06:47:33;;;;;;;40.73;20.30;;;;;;;6.70;80.68;99815.38;5033949;28;20173;-83
2022/01/15 06:49:58;;;;;;;29.03;14.67;;;;;;;5.74;80.65;99652.28;5034713;28;20166;-84
2022/01/15 06:52:24;;;;;;;24.07;13.20;;;;;;;6.72;81.24;99827.28;5017094;28;20269;-83
2022/01/15 06:54:50;;;;;;;38.57;17.83;;;;;;;6.27;80.90;99748.81;5034972;28;20189;-83
2022/01/15 06:57:16;;;;;;;38.63;16.27;;;;;;;6.78;81.09;99849.47;5035691;28;20227;-83
2022/01/15 06:59:44;;;;;;;46.87;20.53;;;;;;;6.88;80.53;99849.28;5034058;28;20178;-82
2022/01/15 07:02:11;;;;;;;35.13;16.87;;;;;;;6.89;80.61;99851.03;5034586;28;20264;-83
2022/01/15 07:04:39;;;;;;;57.93;25.10;;;;;;;4.49;80.80;99441.41;5034954;28;20158;-84
2022/01/15 07:07:04;;;;;;;47.97;22.53;;;;;;;6.99;80.79;99858.41;5035580;28;20176;-84
2022/01/15 07:09:30;;;;;;;32.63;18.00;;;;;;;6.93;80.28;99870.56;5035283;28;20170;-83
2022/01/15 07:11:56;;;;;;;34.57;16.00;;;;;;;6.22;80.97;99743.50;5036537;28;20170;-84
2022/01/15 07:14:21;;;;;;;32.77;15.43;;;;;;;6.33;81.03;99795.34;5034188;28;20286;-84
2022/01/15 07:16:47;;;;;;;31.90;15.50;;;;;;;6.86;81.13;99886.06;5034254;28;20205;-83
2022/01/15 07:19:12;;;;;;;22.57;12.03;;;;;;;4.35;79.99;99464.66;5034612;28;20649;-83
2022/01/15 07:21:38;;;;;;;39.30;19.27;;;;;;;4.12;80.73;99453.09;5034068;28;20162;-84
2022/01/15 07:24:03;;;;;;;50.03;22.37;;;;;;;5.45;80.14;99692.13;5034221;28;20154;-85
2022/01/15 07:26:28;;;;;;;40.17;20.50;;;;;;;4.20;79.97;99421.03;5034395;28;20620;-84
2022/01/15 07:28:54;;;;;;;49.50;25.97;;;;;;;4.44;79.87;99485.34;5034052;28;20232;-84
2022/01/15 07:31:19;;;;;;;38.40;21.13;;;;;;;4.42;79.33;99481.88;5033956;28;20158;-84
2022/01/15 07:33:45;;;;;;;40.83;21.00;;;;;;;4.79;79.42;99548.78;5034126;28;20166;-84
2022/01/15 07:36:12;;;;;;;39.03;20.93;;;;;;;6.88;79.88;99907.16;5034237;28;20619;-83
2022/01/15 07:38:37;;;;;;;56.33;29.03;;;;;;;6.89;79.69;99937.47;5034571;28;20547;-84
2022/01/15 07:41:05;;;;;;;55.97;28.77;;;;;;;6.43;80.49;99855.53;5025729;28;20180;-84
2022/01/15 07:43:31;;;;;;;77.73;38.63;;;;;;;5.96;79.94;99704.88;5035337;28;20153;-84
2022/01/15 07:45:56;;;;;;;89.67;44.87;;;;;;;5.69;80.15;99674.56;5033961;28;20541;-83
2022/01/15 07:48:22;;;;;;;75.50;38.20;;;;;;;5.52;79.42;99644.09;5034297;28;20259;-83
2022/01/15 07:50:48;;;;;;;74.83;36.53;;;;;;;7.27;79.91;99926.50;5033879;28;20216;-83
2022/01/15 07:53:13;;;;;;;56.47;28.77;;;;;;;5.35;79.34;99598.66;5015811;28;20169;-85
2022/01/15 07:55:39;;;;;;;69.33;38.87;;;;;;;6.05;78.99;99725.53;5040799;28;20197;-84
2022/01/15 07:58:06;;;;;;;28.80;15.97;;;;;;;6.21;79.30;99746.78;5036348;28;20162;-84
2022/01/15 08:00:31;;;;;;;22.87;13.47;;;;;;;5.68;79.21;99699.59;5034545;28;20589;-83
2022/01/15 08:02:57;;;;;;;19.77;11.33;;;;;;;6.98;80.11;99963.22;5035488;28;20170;-85
2022/01/15 08:05:22;;;;;;;16.17;9.73;;;;;;;6.69;79.53;99877.41;5036285;28;20159;-85
2022/01/15 08:07:48;;;;;;;20.37;11.57;;;;;;;5.02;79.93;99613.06;5039489;28;20216;-84
2022/01/15 08:10:13;;;;;;;25.93;13.30;;;;;;;3.84;80.96;99439.38;5034898;28;20169;-84
2022/01/15 08:12:57;;;;;;;26.43;14.30;;;;;;;6.19;80.73;99821.22;5035675;28;20216;-84
2022/01/15 08:15:25;;;;;;;27.67;14.03;;;;;;;6.92;80.90;99967.00;5034364;28;20271;-85
2022/01/15 08:17:50;;;;;;;37.80;21.53;;;;;;;5.09;80.64;99642.81;5034519;28;20168;-85
2022/01/15 08:20:16;;;;;;;35.63;19.00;;;;;;;6.41;80.67;99844.50;5034382;28;20162;-84
2022/01/15 08:22:42;;;;;;;35.77;19.77;;;;;;;5.66;79.79;99679.38;5035325;28;20546;-84
2022/01/15 08:25:09;;;;;;;32.00;18.53;;;;;;;7.50;79.73;99977.59;5038693;28;20158;-82
2022/01/15 08:27:34;;;;;;;44.07;22.73;;;;;;;6.95;79.74;99846.41;5036355;28;20630;-84
2022/01/15 08:30:00;;;;;;;73.97;38.63;;;;;;;5.04;77.86;99499.50;5036757;28;20193;-85
2022/01/15 08:32:25;;;;;;;58.23;29.30;;;;;;;6.92;78.29;99808.47;5039144;28;20165;-83
2022/01/15 08:34:51;;;;;;;71.60;36.03;;;;;;;7.66;77.84;99929.91;5040004;28;20221;-84
2022/01/15 08:37:16;;;;;;;89.27;45.40;;;;;;;5.62;77.98;99601.25;5039663;28;20186;-84
2022/01/15 08:39:42;;;;;;;80.10;40.03;;;;;;;5.75;78.29;99613.84;5021176;28;20170;-85
2022/01/15 08:42:09;;;;;;;75.77;35.23;;;;;;;6.06;78.39;99682.94;5040302;28;20177;-85
2022/01/15 08:44:36;;;;;;;74.10;37.20;;;;;;;7.94;78.80;100032.50;5041974;28;20160;-85
2022/01/15 08:47:02;;;;;;;48.70;24.07;;;;;;;5.81;76.63;99669.50;5039457;28;20189;-85
2022/01/15 08:49:28;;;;;;;31.53;17.33;;;;;;;4.96;77.04;99515.69;5040037;28;20155;-85
2022/01/15 08:51:54;;;;;;;46.90;23.53;;;;;;;6.80;76.92;99817.72;5040605;28;20184;-84
2022/01/15 08:54:19;;;;;;;44.73;22.13;;;;;;;7.08;77.22;99889.22;5042915;28;20216;-83
2022/01/15 08:56:45;;;;;;;42.83;21.77;;;;;;;6.07;78.19;99711.47;5040770;28;20172;-84
2022/01/15 08:59:10;;;;;;;37.23;19.63;;;;;;;5.23;78.53;99600.34;5041484;28;20530;-84
2022/01/15 09:01:36;;;;;;;25.17;13.50;;;;;;;7.68;78.18;100013.19;5022814;28;20232;-84
2022/01/15 09:04:02;;;;;;;49.40;22.03;;;;;;;5.18;78.59;99600.78;5042545;28;20254;-83
2022/01/15 09:06:27;;;;;;;56.87;25.00;;;;;;;7.83;78.58;99999.03;5042430;28;20189;-84
2022/01/15 09:08:53;;;;;;;92.97;41.93;;;;;;;6.33;77.62;99704.84;5026034;28;20178;-84
2022/01/15 09:11:18;;;;;;;38.27;19.70;;;;;;;7.43;78.28;99892.34;5024864;28;20251;-85
2022/01/15 09:13:44;;;;;;;25.47;13.00;;;;;;;6.86;77.74;99787.91;5024809;28;20240;-85
2022/01/15 09:16:09;;;;;;;22.93;12.07;;;;;;;8.28;76.93;100006.13;5026640;28;20185;-84
2022/01/15 09:18:35;;;;;;;50.00;21.97;;;;;;;6.79;78.46;99788.28;5026034;28;20178;-83
2022/01/15 09:21:02;;;;;;;34.67;16.67;;;;;;;6.37;79.60;99747.00;5042254;28;20173;-83
2022/01/15 09:23:27;;;;;;;32.13;15.77;;;;;;;5.54;79.36;99609.91;5041411;28;20174;-83
2022/01/15 09:25:53;;;;;;;47.37;23.53;;;;;;;7.81;79.73;100005.63;5022371;28;20244;-85
2022/01/15 09:31:03;;;;;;;64.30;26.43;;;;;;;6.74;79.46;99805.59;5046255;28;20192;-85
2022/01/15 09:33:28;;;;;;;47.03;24.73;;;;;;;7.02;79.68;99813.28;5026326;28;20234;-83
2022/01/15 09:35:54;;;;;;;52.23;26.27;;;;;;;5.84;79.57;99586.81;5036513;28;20275;-84
2022/01/15 09:38:20;;;;;;;52.87;22.60;;;;;;;7.70;78.79;99885.63;5035065;28;20170;-85
2022/01/15 09:40:45;;;;;;;42.40;20.27;;;;;;;6.92;79.45;99765.66;5015193;28;20170;-85
2022/01/15 09:43:13;;;;;;;71.03;29.20;;;;;;;8.55;78.38;99996.84;5015744;28;20177;-84
2022/01/15 09:45:39;;;;;;;30.40;15.33;;;;;;;5.93;77.59;99562.31;5034239;28;20167;-85
2022/01/15 09:48:06;;;;;;;43.67;20.70;;;;;;;5.71;77.25;99472.09;5018715;28;20191;-86
2022/01/15 09:50:43;;;;;;;28.20;16.07;;;;;;;7.54;76.26;99767.06;5019961;28;20184;-85
2022/01/15 09:53:11;;;;;;;37.17;19.23;;;;;;;8.73;75.27;99957.59;5035453;28;20166;-86
2022/01/15 09:55:37;;;;;;;44.63;21.30;;;;;;;8.87;74.40;99904.59;5036339;28;20652;-84
2022/01/15 09:58:03;;;;;;;43.10;20.13;;;;;;;8.94;74.25;99913.41;5018285;28;20182;-86
2022/01/15 10:00:29;;;;;;;26.43;14.73;;;;;;;8.98;73.56;99922.91;5035847;28;20169;-84
2022/01/15 10:02:54;;;;;;;22.43;11.53;;;;;;;8.46;74.45;99905.50;5035687;28;20182;-85
2022/01/15 10:05:21;;;;;;;37.90;17.80;;;;;;;8.96;75.62;99982.53;5019905;28;20194;-85
2022/01/15 10:07:55;;;;;;;36.10;18.07;;;;;;;6.66;75.53;99628.16;5035809;28;20249;-86
2022/01/15 10:10:22;;;;;;;40.33;19.17;;;;;;;5.62;74.95;99465.66;5035870;28;20166;-84
2022/01/15 10:12:47;;;;;;;24.37;12.83;;;;;;;8.47;77.09;99972.81;5036871;28;20162;-85
2022/01/15 10:15:15;;;;;;;31.80;18.03;;;;;;;7.57;76.47;99792.44;5035969;28;20248;-85
2022/01/15 10:17:41;;;;;;;25.43;14.80;;;;;;;8.80;74.71;99968.16;5019186;28;20166;-85
2022/01/15 10:20:08;;;;;;;24.37;13.13;;;;;;;9.26;72.62;99960.72;5036295;28;20656;-85
2022/01/15 10:22:37;;;;;;;21.30;13.03;;;;;;;7.50;72.64;99614.84;5036561;28;20166;-85
2022/01/15 10:25:14;;;;;;;23.07;11.30;;;;;;;9.28;70.73;99912.03;5036969;28;20159;-85
2022/01/15 10:27:44;;;;;;;25.03;14.00;;;;;;;9.56;70.05;99899.28;5035867;28;20180;-85
2022/01/15 10:30:12;;;;;;;22.33;12.53;;;;;;;10.08;71.12;99951.91;5017762;28;20623;-84
2022/01/15 10:32:54;;;;;;;25.90;13.50;;;;;;;9.50;70.55;99787.75;5035130;28;20162;-84
2022/01/15 10:35:20;;;;;;;22.03;12.33;;;;;;;10.17;68.21;99888.31;5035513;28;20223;-84
2022/01/15 10:38:00;;;;;;;24.00;13.33;;;;;;;9.49;69.22;99849.19;5036478;28;20185;-83
2022/01/15 10:40:47;;;;;;;28.10;15.20;;;;;;;8.84;70.55;99800.91;5037429;28;20174;-85
2022/01/15 10:43:18;;;;;;;40.80;20.07;;;;;;;9.58;71.01;99938.16;5036731;28;20194;-85
2022/01/15 10:45:55;;;;;;;24.97;12.60;;;;;;;9.63;71.20;99939.28;5019479;28;20186;-85
2022/01/15 10:48:22;;;;;;;42.17;22.13;;;;;;;10.00;70.17;99934.56;5036554;28;20244;-83
2022/01/15 10:51:05;;;;;;;36.33;19.40;;;;;;;8.62;69.81;99702.09;5035915;28;20162;-85
2022/01/15 10:53:37;;;;;;;21.60;10.80;;;;;;;6.85;69.57;99413.78;5036417;28;20249;-84
2022/01/15 10:56:04;;;;;;;32.90;16.10;;;;;;;7.50;69.51;99587.16;5036264;28;20190;-84
2022/01/15 10:58:30;;;;;;;23.93;13.63;;;;;;;7.85;68.20;99613.53;5036090;28;20178;-85
2022/01/15 11:00:55;;;;;;;19.87;9.27;;;;;;;7.50;67.68;99545.97;5020348;28;20176;-86
2022/01/15 11:03:22;;;;;;;26.83;16.27;;;;;;;9.65;67.29;99866.94;5039459;28;20234;-84
2022/01/15 11:05:52;;;;;;;29.77;14.70;;;;;;;9.83;65.75;99850.22;5037539;28;20214;-85
2022/01/15 11:08:26;;;;;;;37.83;20.13;;;;;;;10.13;67.54;99929.44;5039457;28;20173;-85
2022/01/15 11:10:57;;;;;;;23.43;11.93;;;;;;;8.94;67.13;99793.84;5037692;28;20162;-86
2022/01/15 11:13:35;;;;;;;33.83;18.80;;;;;;;9.81;67.68;99927.66;5035628;28;20166;-85
2022/01/15 11:16:05;;;;;;;21.70;10.47;;;;;;;9.66;67.10;99920.88;5034681;28;20190;-85
2022/01/15 11:18:33;;;;;;;19.17;9.40;;;;;;;9.53;68.19;99924.41;5035655;28;20162;-86
2022/01/15 11:21:03;;;;;;;34.30;17.93;;;;;;;9.34;68.82;99922.47;5035783;28;20319;-86
2022/01/15 11:23:30;;;;;;;29.57;13.83;;;;;;;7.63;68.98;99662.69;5036142;28;20245;-84
2022/01/15 11:25:58;;;;;;;33.73;15.33;;;;;;;7.57;69.48;99580.81;5034771;28;20201;-85
2022/01/15 11:28:28;;;;;;;28.57;13.90;;;;;;;8.36;69.36;99727.47;5034422;28;20240;-85
2022/01/15 11:31:00;;;;;;;31.70;15.43;;;;;;;7.95;68.17;99654.47;5017111;28;20174;-85
2022/01/15 11:33:29;;;;;;;40.80;18.80;;;;;;;8.85;68.61;99762.28;5016428;28;20181;-85
2022/01/15 11:35:55;;;;;;;48.27;21.57;;;;;;;9.09;68.28;99841.03;5034208;28;20197;-87
2022/01/15 11:38:41;;;;;;;27.00;11.17;;;;;;;9.59;67.32;99904.50;5034330;28;20652;-85
2022/01/15 11:41:25;;;;;;;72.30;26.03;;;;;;;9.36;68.68;99904.88;5034229;28;20165;-84
2022/01/15 11:43:51;;;;;;;34.33;14.13;;;;;;;8.29;68.09;99716.16;5034399;28;20614;-86
2022/01/15 11:46:25;;;;;;;21.03;11.17;;;;;;;9.58;67.38;99905.31;5016484;28;20269;-85
2022/01/15 11:48:51;;;;;;;15.97;9.87;;;;;;;6.50;67.12;99377.38;5016685;28;20230;-85
2022/01/15 11:51:18;;;;;;;15.23;8.37;;;;;;;9.96;66.70;99904.88;5016852;28;20177;-83
2022/01/15 11:53:47;;;;;;;28.43;14.83;;;;;;;10.23;65.03;99910.53;5035082;28;20159;-85
2022/01/15 11:56:16;;;;;;;35.70;19.57;;;;;;;10.32;64.49;99911.03;5034160;28;20677;-84